AirNav   Everest Fuels
 
 788 users online  

X10 Belle Glade State Municipal Airport
Belle Glade, Florida, USA

GOING TO BELLE GLADE?


FAA INFORMATION EFFECTIVE 10 SEPTEMBER 2020

Location

FAA Identifier: X10
Lat/Long: 26-41-53.4800N 080-39-36.8800W
26-41.891333N 080-39.614667W
26.6981889,-80.6602444
(estimated)
Elevation: 14 ft. / 4 m (estimated)
Variation: 03W (1985)
From city: 1 mile NE of BELLE GLADE, FL
Time zone: UTC -4 (UTC -5 during Standard Time)
Zip code: 33430

Airport Operations

Airport use: Open to the public
Activation date: 04/1940
Control tower: no
ARTCC: MIAMI CENTER
FSS: MIAMI FLIGHT SERVICE STATION
NOTAMs facility: MIA (NOTAM-D service available)
Attendance: UNATNDD
Wind indicator: lighted, WIND SOCK TORN OFF
Segmented circle: no
Lights: ACTVT LIRL RWY 09/27 -CTAF.

Airport Communications

CTAF: 122.9

Nearby radio navigation aids

VOR radial/distance  VOR name  Freq  Var
PHKr162/5.3PAHOKEE VOR/DME115.4000E
PBIr275/30.8PALM BEACH VORTAC115.7003W
LBVr100/39.9LA BELLE VORTAC110.4001E

 
NDB name  Hdg/Dist  Freq  Var  ID
UNITED239/21.540505WUTX ..- - -..-

Airport Services

Airframe service: NONE
Powerplant service: NONE
Bottled oxygen: NONE
Bulk oxygen: NONE

Runway Information

Runway 9/27

Dimensions: 3455 x 50 ft. / 1053 x 15 m
Surface: asphalt, in excellent condition
Weight bearing capacity: 
PCN 13 /F/A/X/T
Runway edge lights: low intensity
RUNWAY 9  RUNWAY 27
Latitude: 26-41.891000N26-41.891667N
Longitude: 080-39.932167W080-39.297167W
Elevation: 14.0 ft.11.0 ft.
Traffic pattern: leftleft
Runway heading: 093 magnetic, 090 true273 magnetic, 270 true
Declared distances: TORA:3750 TODA:3750TORA:3750 TODA:3750
Markings: basic, in good conditionbasic, in good condition
Obstructions: 36 ft. tree, 915 ft. from runway, 20 ft. left of centerline, 20:1 slope to clear50 ft. pole, 1342 ft. from runway, 20 ft. left of centerline, 23:1 slope to clear

Airport Ownership and Management from official FAA records

Ownership: Publicly-owned
Owner: CITY OF BELLE GLADE
110 DR. MARTIN LUTHER KING JR. BLVD
BELLE GLADE, FL 33430-3900
Phone 561-996-0100
CONTACT PERSON: LOMAX HARRELLE 561-992-1601
Manager: LARRY TIBBS
110 DR. MARTIN LUTHER KING JR. BLVD
BELLE GLADE, FL 33430
Phone (561) 992-1610

Airport Operational Statistics

Aircraft based on the field: 5
Single engine airplanes: 5
    
Aircraft operations: avg 34/week *
67% local general aviation
33% transient general aviation
* for 12-month period ending 12 January 2018

Additional Remarks

RY 09 NIGHT LNDGS NOT ADVISED DUE TO UNLGTD POWER LINES IN APCH.
BERM FULL LENGTH OF RY 113 FT N OF CNTRLN, RY 09/27.
FOR CD CTC PALM BEACH APCH AT 561-275-1430

Instrument Procedures

There are no published instrument procedures at X10.

Some nearby airports with instrument procedures:

KPHK - Palm Beach County Glades Airport (6 nm N)
2IS - Airglades Airport (21 nm W)
06FA - William P Gwinn Airport (22 nm NE)
F45 - North Palm Beach County General Aviation Airport (25 nm E)
KPBI - Palm Beach International Airport (30 nm E)
 
Loc | Ops | Rwys | IFR | FBO | Links
Com | Nav | Svcs | Stats | Notes

Reliance Aviation
AirBoss

 
Area around X10 (Belle Glade State Municipal Airport)
 
Road maps at: MapQuest Bing Google
 
Aerial photo
WARNING: Photo may not be current or correct
Aerial photo of X10 (Belle Glade State Municipal Airport)
Do you have a better or more recent aerial photo of Belle Glade State Municipal Airport that you would like to share? If so, please send us your photo.

 
Sectional chart

 
Airport distance calculator
Flying to Belle Glade State Municipal Airport? Find the distance to fly.

From to X10

Sunrise and sunset
Times for 30-Sep-2020
 Local
(UTC-4)
 Zulu
(UTC)
Morning civil twilight06:5310:53
Sunrise07:1611:16
Sunset19:0923:09
Evening civil twilight19:3223:32

Current date and time
Zulu (UTC)  01-Oct-2020 03:59:50
Local (UTC-4)  30-Sep-2020 23:59:50
 
METAR
K2IS 
21nm W 
010335Z AUTO 36004KT 10SM BKN046 BKN060 OVC070 23/21 A3002 RMK AO2 T02300214
KF45 
25nm E 
010330Z AUTO 03005KT 10SM 25/24 A3000 RMK AO2
KPBI 
30nm E 
010353Z 00000KT 10SM -TSRA SCT014 SCT021CB BKN070 26/24 A2999 RMK AO2 RAB23 TSE27B38 SLP154 OCNL LTGICCG N AND E-SE TS N AND E-SE MOV S P0000 T02610239
KLNA 
31nm E 
010335Z AUTO 33005KT 7SM +RA SCT012 BKN020 OVC029 26/24 A2999 RMK AO2 LTG DSNT S T02580244 PNO
KOBE 
35nm N 
010335Z AUTO 00000KT 10SM OVC070 21/18 A3001 RMK AO2
KBCT 
36nm SE 
010247Z 06011KT 7SM TS SCT013 SCT070 25/24 A2998 RMK LGT DSNT ALQDS. LAST
KSUA 
38nm NE 
010355Z AUTO 01006KT 3SM -RA SCT007 BKN024 OVC028 25/22 A3001 RMK AO2 LTG DSNT E P0082
KFXE 
39nm SE 
010353Z 35004KT 10SM VCTS SCT100 26/24 A2997 RMK AO2 SLP151 T02560239 $
KPMP 
40nm SE 
010353Z AUTO 06003KT 9SM FEW095 26/24 A2997 RMK AO2 LTG DSNT N TSB0256E11 SLP149 T02560239
TAF
KPBI 
30nm E 
010213Z 0102/0124 02010KT P6SM VCTS BKN020CB BKN050 TEMPO 0102/0104 VRB15G25KT 3SM TSRA SCT015 BKN025CB BKN040 FM010500 04007KT P6SM VCSH SCT015 BKN035 BKN120 FM011400 04010KT P6SM VCTS SCT023CB BKN040 PROB30 0116/0122 3SM TSRA BKN025CB FM012200 02008KT P6SM VCSH SCT030 BKN050 BKN100
KSUA 
38nm NE 
010201Z 0102/0124 01008G17KT P6SM VCSH SCT025 OVC050 TEMPO 0102/0104 6SM SHRA SCT015 BKN025 FM010500 01007KT P6SM SCT010 BKN020 TEMPO 0107/0111 6SM -RA BR BKN010 OVC020 FM011300 02006KT P6SM SCT020 BKN030 FM011500 04007KT 6SM SHRA BKN025 OVC040 TEMPO 0116/0119 3SM TSRA BKN020CB OVC040
NOTAMs
Click for the latest NOTAMs
NOTAMs are issued by the DoD/FAA and will open in a separate window not controlled by AirNav.

 

 
 

Would you like to see your business listed on this page?

 If your business provides an interesting product or service to pilots, flight crews, aircraft, or users of the Belle Glade State Municipal Airport, you should consider listing it here.  To start the listing process, click on the button below
 
Add a business
 

Other Pages about Belle Glade State Municipal Airport

Update a link
 
Copyright © AirNav, LLC. All rights reserved. Privacy Policy  Contact